createdAt,value
2018-06-23T00:00:10.408Z,12.12
2018-06-23T00:01:19.263Z,12.17
2018-06-23T00:02:28.118Z,12.17
2018-06-23T00:03:37.533Z,12.23
2018-06-23T00:04:46.489Z,12.24
2018-06-23T00:05:55.623Z,12.34
2018-06-23T00:07:05.034Z,12.28
2018-06-23T00:08:13.893Z,12.16
2018-06-23T00:09:22.759Z,12.28
2018-06-23T00:10:31.818Z,12.23
2018-06-23T00:11:40.953Z,12.17
2018-06-23T00:12:49.812Z,12.28
2018-06-23T00:13:58.676Z,12.29
2018-06-23T00:15:07.811Z,12.28
2018-06-23T00:16:16.666Z,12.31
2018-06-23T00:17:25.522Z,12.28
2018-06-23T00:18:34.661Z,12.29
2018-06-23T00:19:43.522Z,12.16
2018-06-23T00:20:52.662Z,12.28
2018-06-23T00:22:01.868Z,12.27
2018-06-23T00:23:10.723Z,12.13
2018-06-23T00:24:19.907Z,12.17
2018-06-23T00:25:28.765Z,12.27
2018-06-23T00:26:37.621Z,12.32
2018-06-23T00:27:47.112Z,12.27
2018-06-23T00:28:55.972Z,12.12
2018-06-23T00:30:05.114Z,12.29
2018-06-23T00:31:14.245Z,12.16
2018-06-23T00:32:23.101Z,12.1
2018-06-23T00:33:32.008Z,12.1
2018-06-23T00:34:41.142Z,12.14
2018-06-23T00:35:50.000Z,12.16
2018-06-23T00:36:58.859Z,12.21
2018-06-23T00:38:08.270Z,12.19
2018-06-23T00:39:17.754Z,12.16
2018-06-23T00:40:26.615Z,12.17
2018-06-23T00:41:35.752Z,12.2
2018-06-23T00:42:44.931Z,12.24
2018-06-23T00:43:53.785Z,12.29
2018-06-23T00:45:02.790Z,12.38
2018-06-23T00:46:11.648Z,12.34
2018-06-23T00:47:20.506Z,12.24
2018-06-23T00:48:29.915Z,12.13
2018-06-23T00:49:38.771Z,12.07
2018-06-23T00:50:47.979Z,12.1
2018-06-23T00:51:56.837Z,12.1
2018-06-23T00:53:05.700Z,12.12
2018-06-23T00:54:14.836Z,12.05
2018-06-23T00:55:23.692Z,12.05
2018-06-23T00:56:32.905Z,12.17
2018-06-23T00:57:41.759Z,12.13
2018-06-23T00:58:50.898Z,12.27
2018-06-23T00:59:59.757Z,12.29
2018-06-23T01:01:08.615Z,12.31
2018-06-23T01:02:17.671Z,12.28
2018-06-23T01:03:26.804Z,12.29
2018-06-23T01:04:35.659Z,12.45
2018-06-23T01:05:44.516Z,12.34
2018-06-23T01:06:53.374Z,12.31
2018-06-23T01:08:02.612Z,12.29
2018-06-23T01:09:11.470Z,12.21
2018-06-23T01:10:20.609Z,12.16
2018-06-23T01:11:29.466Z,12.19
2018-06-23T01:12:38.377Z,12.14
2018-06-23T01:13:47.384Z,12.24
2018-06-23T01:14:56.240Z,12.2
2018-06-23T01:16:05.095Z,12.16
2018-06-23T01:17:13.954Z,12.13
2018-06-23T01:18:22.818Z,12.16
2018-06-23T01:19:31.733Z,12.1
2018-06-23T01:20:40.865Z,12.16
2018-06-23T01:21:49.724Z,12.13
2018-06-23T01:22:58.583Z,12.14
2018-06-23T01:24:07.442Z,12.13
2018-06-23T01:25:16.926Z,12.09
2018-06-23T01:26:25.785Z,12.09
2018-06-23T01:27:40.926Z,12.1
2018-06-23T01:28:49.784Z,12.17
2018-06-23T01:29:58.640Z,12.16
2018-06-23T01:31:07.548Z,12.21
2018-06-23T01:32:16.403Z,12.2
2018-06-23T01:33:25.538Z,12.16
2018-06-23T01:34:34.393Z,12.1
2018-06-23T01:35:43.254Z,12.05
2018-06-23T01:36:52.543Z,12.05
2018-06-23T01:38:01.402Z,12.09
2018-06-23T01:39:10.260Z,12.19
2018-06-23T01:40:19.114Z,12.17
2018-06-23T01:41:28.252Z,12.09
2018-06-23T01:42:37.389Z,12.12
2018-06-23T01:43:46.811Z,12.13
2018-06-23T01:44:55.669Z,12.07
2018-06-23T01:46:04.804Z,12.09
2018-06-23T01:47:13.670Z,12.24
2018-06-23T01:48:22.875Z,12.19
2018-06-23T01:49:31.737Z,12.23
2018-06-23T01:50:40.871Z,12.21
2018-06-23T01:51:50.005Z,12.41
2018-06-23T01:52:59.140Z,12.19
2018-06-23T01:54:08.146Z,12.09
2018-06-23T01:55:17.006Z,12.02
2018-06-23T01:56:25.863Z,12.04
2018-06-23T01:57:35.005Z,12.04
2018-06-23T01:58:43.866Z,12.16
2018-06-23T01:59:53.149Z,12.05
2018-06-23T02:01:02.580Z,12.14
2018-06-23T02:02:11.436Z,12.05
2018-06-23T02:03:20.292Z,12.02
2018-06-23T02:04:29.150Z,11.95
2018-06-23T02:05:38.108Z,12.1
2018-06-23T02:06:46.965Z,12.02
2018-06-23T02:07:55.823Z,11.95
2018-06-23T02:09:04.680Z,11.83
2018-06-23T02:10:13.537Z,11.78
2018-06-23T02:11:22.400Z,11.67
2018-06-23T02:12:31.267Z,11.78
2018-06-23T02:13:40.387Z,11.76
2018-06-23T02:14:49.250Z,11.67
2018-06-23T02:15:58.113Z,11.64
2018-06-23T02:17:07.017Z,11.73
2018-06-23T02:18:15.973Z,11.82
2018-06-23T02:19:24.830Z,11.62
2018-06-23T02:20:33.685Z,11.64
2018-06-23T02:21:42.540Z,11.69
2018-06-23T02:22:51.449Z,11.7
2018-06-23T02:24:00.581Z,11.65
2018-06-23T02:25:09.435Z,11.67
2018-06-23T02:26:18.291Z,11.73
2018-06-23T02:27:27.423Z,11.76
2018-06-23T02:28:36.430Z,11.78
2018-06-23T02:29:45.288Z,11.75
2018-06-23T02:30:54.145Z,11.73
2018-06-23T02:32:03.283Z,11.7
2018-06-23T02:33:12.440Z,11.82
2018-06-23T02:34:21.572Z,11.67
2018-06-23T02:35:30.986Z,11.7
2018-06-23T02:36:40.122Z,11.78
2018-06-23T02:37:49.542Z,11.75
2018-06-23T02:38:58.405Z,11.65
2018-06-23T02:40:07.314Z,11.64
2018-06-23T02:41:16.726Z,11.51
2018-06-23T02:42:26.140Z,11.55
2018-06-23T02:43:35.276Z,11.65
2018-06-23T02:44:44.133Z,11.51
2018-06-23T02:45:53.047Z,11.58
2018-06-23T02:47:02.738Z,11.42
2018-06-23T02:48:11.877Z,11.49
2018-06-23T02:49:20.735Z,11.52
2018-06-23T02:50:29.868Z,11.46
2018-06-23T02:51:39.280Z,11.37
2018-06-23T02:52:48.411Z,11.44
2018-06-23T02:53:57.272Z,11.4
2018-06-23T02:55:06.963Z,11.46
2018-06-23T02:56:16.196Z,11.46
2018-06-23T02:57:25.431Z,11.52
2018-06-23T02:58:34.286Z,11.49
2018-06-23T02:59:43.433Z,11.62
2018-06-23T03:00:52.845Z,11.6
2018-06-23T03:02:01.979Z,11.69
2018-06-23T03:03:11.539Z,11.64
2018-06-23T03:04:20.395Z,11.61
2018-06-23T03:05:29.533Z,11.67
2018-06-23T03:06:38.393Z,11.51
2018-06-23T03:07:47.527Z,11.52
2018-06-23T03:08:56.386Z,11.47
2018-06-23T03:10:05.245Z,11.57
2018-06-23T03:11:14.384Z,11.51
2018-06-23T03:12:23.796Z,11.51
2018-06-23T03:13:33.202Z,11.61
2018-06-23T03:14:42.061Z,11.57
2018-06-23T03:15:51.216Z,11.52
2018-06-23T03:17:00.908Z,11.49
2018-06-23T03:18:10.052Z,11.51
2018-06-23T03:19:19.184Z,11.78
2018-06-23T03:20:28.241Z,11.61
2018-06-23T03:21:37.097Z,11.57
2018-06-23T03:22:45.955Z,11.57
2018-06-23T03:23:54.818Z,11.57
2018-06-23T03:25:03.674Z,11.64
2018-06-23T03:26:12.684Z,11.62
2018-06-23T03:27:21.540Z,11.61
2018-06-23T03:28:30.396Z,11.6
2018-06-23T03:29:39.254Z,11.52
2018-06-23T03:30:48.118Z,12.02
2018-06-23T03:31:58.085Z,11.91
2018-06-23T03:33:07.222Z,11.73
2018-06-23T03:34:16.081Z,11.88
2018-06-23T03:35:24.941Z,11.79
2018-06-23T03:36:33.799Z,11.72
2018-06-23T03:37:43.283Z,11.78
2018-06-23T03:38:52.140Z,11.76
2018-06-23T03:40:01.003Z,11.79
2018-06-23T03:41:09.860Z,11.73
2018-06-23T03:42:18.717Z,11.69
2018-06-23T03:43:27.673Z,11.82
2018-06-23T03:44:36.531Z,11.85
2018-06-23T03:45:45.386Z,11.82
2018-06-23T03:46:54.244Z,12.01
2018-06-23T03:48:03.102Z,12.1
2018-06-23T03:49:12.112Z,12.1
2018-06-23T03:50:20.974Z,12.01
2018-06-23T03:51:29.834Z,11.83
2018-06-23T03:52:38.686Z,11.91
2018-06-23T03:53:47.825Z,11.96
2018-06-23T03:54:57.013Z,11.86
2018-06-23T03:56:06.150Z,12.07
2018-06-23T03:57:15.008Z,11.95
2018-06-23T03:58:23.863Z,12.02
2018-06-23T03:59:32.993Z,12.32
2018-06-23T04:00:42.458Z,12.1
2018-06-23T04:01:51.874Z,12.1
2018-06-23T04:03:00.728Z,12.1
2018-06-23T04:04:09.863Z,12.02
2018-06-23T04:05:18.723Z,12.2
2018-06-23T04:06:27.966Z,12.24
2018-06-23T04:07:36.825Z,12.2
2018-06-23T04:08:45.961Z,12.21
2018-06-23T04:09:55.095Z,12.17
2018-06-23T04:11:03.954Z,12.17
2018-06-23T04:12:12.961Z,12.16
2018-06-23T04:13:21.818Z,12.27
2018-06-23T04:14:30.676Z,12.27
2018-06-23T04:15:39.536Z,12.29
2018-06-23T04:16:48.414Z,12.24
2018-06-23T04:17:57.550Z,12.2
2018-06-23T04:19:06.411Z,12.24
2018-06-23T04:20:15.269Z,12.29
2018-06-23T04:21:24.424Z,12.31
2018-06-23T04:22:33.257Z,12.23
2018-06-23T04:23:42.164Z,12.28
2018-06-23T04:24:51.301Z,12.37
2018-06-23T04:26:00.160Z,12.29
2018-06-23T04:27:09.017Z,12.35
2018-06-23T04:28:17.877Z,12.38
2018-06-23T04:29:26.837Z,12.35
2018-06-23T04:30:35.700Z,12.47
2018-06-23T04:31:44.558Z,12.45
2018-06-23T04:32:53.416Z,12.5
2018-06-23T04:34:02.274Z,12.53
2018-06-23T04:35:11.411Z,12.52
2018-06-23T04:36:20.827Z,12.53
2018-06-23T04:37:29.966Z,12.49
2018-06-23T04:38:38.822Z,12.52
2018-06-23T04:39:47.681Z,12.56
2018-06-23T04:40:56.917Z,12.59
2018-06-23T04:42:06.120Z,12.52
2018-06-23T04:43:14.931Z,12.68
2018-06-23T04:44:24.066Z,12.52
2018-06-23T04:45:33.477Z,12.62
2018-06-23T04:46:42.335Z,12.68
2018-06-23T04:47:51.202Z,12.67
2018-06-23T04:49:00.308Z,12.77
2018-06-23T04:50:09.168Z,12.68
2018-06-23T04:51:18.306Z,12.65
2018-06-23T04:52:27.266Z,12.71
2018-06-23T04:53:36.127Z,12.7
2018-06-23T04:54:44.984Z,12.7
2018-06-23T04:55:53.845Z,12.71
2018-06-23T04:57:02.700Z,12.71
2018-06-23T04:58:11.709Z,12.67
2018-06-23T04:59:20.568Z,12.65
2018-06-23T05:00:29.481Z,12.9
2018-06-23T05:01:38.286Z,12.89
2018-06-23T05:02:47.145Z,12.86
2018-06-23T05:03:56.276Z,12.87
2018-06-23T05:05:05.412Z,12.83
2018-06-23T05:06:14.944Z,12.85
2018-06-23T05:07:24.083Z,12.78
2018-06-23T05:08:33.222Z,12.82
2018-06-23T05:09:42.458Z,12.82
2018-06-23T05:10:51.590Z,12.93
2018-06-23T05:12:00.448Z,12.79
2018-06-23T05:13:09.589Z,12.87
2018-06-23T05:14:18.443Z,12.79
2018-06-23T05:15:27.302Z,12.77
2018-06-23T05:16:36.160Z,12.83
2018-06-23T05:17:45.020Z,12.67
2018-06-23T05:18:53.879Z,12.5
2018-06-23T05:20:02.735Z,12.67
2018-06-23T05:21:12.046Z,12.67
2018-06-23T05:22:20.913Z,12.57
2018-06-23T05:23:30.043Z,12.53
2018-06-23T05:24:38.902Z,12.59
2018-06-23T05:25:47.762Z,12.56
2018-06-23T05:26:56.771Z,12.47
2018-06-23T05:28:05.627Z,12.57
2018-06-23T05:29:14.490Z,12.54
2018-06-23T05:30:23.345Z,12.57
2018-06-23T05:31:32.204Z,12.68
2018-06-23T05:32:41.213Z,12.59
2018-06-23T05:33:50.072Z,12.78
2018-06-23T05:34:58.927Z,12.53
2018-06-23T05:36:07.787Z,12.53
2018-06-23T05:37:17.195Z,12.49
2018-06-23T05:38:26.200Z,12.45
2018-06-23T05:39:35.058Z,12.39
2018-06-23T05:40:44.206Z,12.56
2018-06-23T05:41:53.063Z,12.47
2018-06-23T05:43:02.202Z,12.49
2018-06-23T05:44:11.061Z,12.47
2018-06-23T05:45:19.919Z,12.53
2018-06-23T05:46:28.777Z,12.65
2018-06-23T05:47:37.912Z,12.71
2018-06-23T05:48:47.046Z,12.78
2018-06-23T05:49:56.004Z,12.82
2018-06-23T05:51:05.140Z,12.87
2018-06-23T05:52:14.000Z,12.74
2018-06-23T05:53:22.855Z,12.82
2018-06-23T05:54:31.712Z,12.71
2018-06-23T05:55:40.868Z,12.72
2018-06-23T05:56:50.294Z,12.75
2018-06-23T05:57:59.152Z,12.75
2018-06-23T05:59:08.018Z,12.78
2018-06-23T06:00:17.155Z,12.59
2018-06-23T06:01:26.290Z,12.68
2018-06-23T06:02:35.153Z,12.86
2018-06-23T06:03:44.012Z,12.95
2018-06-23T06:04:52.874Z,12.85
2018-06-23T06:06:01.735Z,13.12
2018-06-23T06:07:11.040Z,13.12
2018-06-23T06:08:19.729Z,13.17
2018-06-23T06:09:28.600Z,13.2
2018-06-23T06:10:37.460Z,13.22
2018-06-23T06:11:46.625Z,13.29
2018-06-23T06:12:55.755Z,13.32
2018-06-23T06:14:04.975Z,13.14
2018-06-23T06:15:13.820Z,13.32
2018-06-23T06:16:22.887Z,13.25
2018-06-23T06:17:31.747Z,13.45
2018-06-23T06:18:40.771Z,13.46
2018-06-23T06:19:49.642Z,13.55
2018-06-23T06:20:58.777Z,13.52
2018-06-23T06:22:07.686Z,13.55
2018-06-23T06:23:16.545Z,13.55
2018-06-23T06:24:25.406Z,13.48
2018-06-23T06:25:34.266Z,13.49
2018-06-23T06:26:43.132Z,13.7
2018-06-23T06:27:52.265Z,13.62
2018-06-23T06:29:01.128Z,13.67
2018-06-23T06:30:10.268Z,13.64
2018-06-23T06:31:19.126Z,13.79
2018-06-23T06:32:28.265Z,13.71
2018-06-23T06:33:37.123Z,13.75
2018-06-23T06:34:45.981Z,13.77
2018-06-23T06:35:55.125Z,13.75
2018-06-23T06:37:04.260Z,13.77
2018-06-23T06:38:13.534Z,13.89
2018-06-23T06:39:22.454Z,13.79
2018-06-23T06:40:31.316Z,13.88
2018-06-23T06:41:40.455Z,14
2018-06-23T06:42:49.320Z,14
2018-06-23T06:43:58.342Z,13.96
2018-06-23T06:45:07.481Z,14
2018-06-23T06:46:16.626Z,14.06
2018-06-23T06:47:25.489Z,13.95
2018-06-23T06:48:34.631Z,13.92
2018-06-23T06:49:43.492Z,14.1
2018-06-23T06:50:52.430Z,14.32
2018-06-23T06:52:01.871Z,14.2
2018-06-23T06:53:10.732Z,14.29
2018-06-23T06:54:19.598Z,14.2
2018-06-23T06:55:29.166Z,14.22
2018-06-23T06:56:38.024Z,14.25
2018-06-23T06:57:47.167Z,14.29
2018-06-23T06:58:56.029Z,14.32
2018-06-23T07:00:04.891Z,14.39
2018-06-23T07:01:13.805Z,14.35
2018-06-23T07:02:22.734Z,14.4
2018-06-23T07:03:31.553Z,14.58
2018-06-23T07:04:40.984Z,14.58
2018-06-23T07:05:49.846Z,14.46
2018-06-23T07:06:58.981Z,14.42
2018-06-23T07:08:07.858Z,14.47
2018-06-23T07:09:16.706Z,14.4
2018-06-23T07:10:25.566Z,14.51
2018-06-23T07:11:34.427Z,14.51
2018-06-23T07:12:43.288Z,14.47
2018-06-23T07:13:52.147Z,14.51
2018-06-23T07:15:01.014Z,14.42
2018-06-23T07:16:09.876Z,14.57
2018-06-23T07:17:19.015Z,14.55
2018-06-23T07:18:28.200Z,14.61
2018-06-23T07:19:37.061Z,14.55
2018-06-23T07:20:45.932Z,14.65
2018-06-23T07:21:54.784Z,14.52
2018-06-23T07:23:03.652Z,14.55
2018-06-23T07:24:12.603Z,14.58
2018-06-23T07:25:21.838Z,14.51
2018-06-23T07:26:30.975Z,14.51
2018-06-23T07:27:39.833Z,14.52
2018-06-23T07:28:48.973Z,14.51
2018-06-23T07:29:57.932Z,14.55
2018-06-23T07:31:07.080Z,14.62
2018-06-23T07:32:16.226Z,14.61
2018-06-23T07:33:25.360Z,14.81
2018-06-23T07:34:34.353Z,14.7
2018-06-23T07:35:44.159Z,14.72
2018-06-23T07:36:53.066Z,14.8
2018-06-23T07:38:01.882Z,14.81
2018-06-23T07:39:10.764Z,14.65
2018-06-23T07:40:19.601Z,14.8
2018-06-23T07:41:28.462Z,14.8
2018-06-23T07:42:37.613Z,14.73
2018-06-23T07:43:46.476Z,14.72
2018-06-23T07:44:55.339Z,14.77
2018-06-23T07:46:04.223Z,14.77
2018-06-23T07:47:13.416Z,14.88
2018-06-23T07:48:22.277Z,14.8
2018-06-23T07:49:31.142Z,14.81
2018-06-23T07:50:40.283Z,14.86
2018-06-23T07:51:49.145Z,14.81
2018-06-23T07:52:58.061Z,14.77
2018-06-23T07:54:07.199Z,14.77
2018-06-23T07:55:16.061Z,14.84
2018-06-23T07:56:24.922Z,14.86
2018-06-23T07:57:33.781Z,14.99
2018-06-23T07:58:42.646Z,14.98
2018-06-23T07:59:51.508Z,14.92
2018-06-23T08:01:00.647Z,14.95
2018-06-23T08:02:09.795Z,14.92
2018-06-23T08:03:18.655Z,14.94
2018-06-23T08:04:27.621Z,14.96
2018-06-23T08:05:36.519Z,14.98
2018-06-23T08:06:45.658Z,15.02
2018-06-23T08:07:54.520Z,15.1
2018-06-23T08:09:03.383Z,15.14
2018-06-23T08:10:12.863Z,15.14
2018-06-23T08:11:22.000Z,15.17
2018-06-23T08:12:30.861Z,15.14
2018-06-23T08:13:40.000Z,15.11
2018-06-23T08:14:49.137Z,15.1
2018-06-23T08:15:58.348Z,15.06
2018-06-23T08:17:07.212Z,15.16
2018-06-23T08:18:16.071Z,15.14
2018-06-23T08:19:25.214Z,15.14
2018-06-23T08:20:34.350Z,15.11
2018-06-23T08:21:43.638Z,15.1
2018-06-23T08:22:52.780Z,15.06
2018-06-23T08:24:01.651Z,14.98
2018-06-23T08:25:10.792Z,14.89
2018-06-23T08:26:19.720Z,14.99
2018-06-23T08:27:29.256Z,14.98
2018-06-23T08:28:38.390Z,15.09
2018-06-23T08:29:47.250Z,15.17
2018-06-23T08:30:56.112Z,15.14
2018-06-23T08:32:04.976Z,15.31
2018-06-23T08:33:13.987Z,15.11
2018-06-23T08:34:23.124Z,15.17
2018-06-23T08:35:31.985Z,15.14
2018-06-23T08:36:41.127Z,15.25
2018-06-23T08:37:50.006Z,15.14
2018-06-23T08:38:59.432Z,15.17
2018-06-23T08:40:08.291Z,15.32
2018-06-23T08:41:17.154Z,15.25
2018-06-23T08:42:26.017Z,15.31
2018-06-23T08:43:34.882Z,15.39
2018-06-23T08:44:44.084Z,15.59
2018-06-23T08:45:52.945Z,15.38
2018-06-23T08:47:01.806Z,15.44
2018-06-23T08:48:10.668Z,15.39
2018-06-23T08:49:19.841Z,15.32
2018-06-23T08:50:28.854Z,15.32
2018-06-23T08:51:37.712Z,15.31
2018-06-23T08:52:46.572Z,15.36
2018-06-23T08:53:55.433Z,15.39
2018-06-23T08:55:04.299Z,15.56
2018-06-23T08:56:13.436Z,15.49
2018-06-23T08:57:22.299Z,15.56
2018-06-23T08:58:31.159Z,15.56
2018-06-23T08:59:40.302Z,15.54
2018-06-23T09:00:49.164Z,15.65
2018-06-23T09:01:58.930Z,15.68
2018-06-23T09:03:07.794Z,15.83
2018-06-23T09:04:16.932Z,15.89
2018-06-23T09:05:25.794Z,15.87
2018-06-23T09:06:34.665Z,15.94
2018-06-23T09:07:43.794Z,15.97
2018-06-23T09:08:52.658Z,15.97
2018-06-23T09:10:01.521Z,16.04
2018-06-23T09:11:10.390Z,15.96
2018-06-23T09:12:19.526Z,16.01
2018-06-23T09:13:28.538Z,15.97
2018-06-23T09:14:37.400Z,15.97
2018-06-23T09:15:46.261Z,16
2018-06-23T09:16:55.481Z,15.9
2018-06-23T09:18:04.630Z,16.01
2018-06-23T09:19:13.694Z,15.86
2018-06-23T09:20:22.558Z,15.75
2018-06-23T09:21:31.421Z,15.67
2018-06-23T09:22:40.280Z,15.69
2018-06-23T09:23:49.142Z,15.54
2018-06-23T09:24:58.404Z,15.49
2018-06-23T09:26:07.270Z,15.5
2018-06-23T09:27:16.132Z,15.51
2018-06-23T09:28:24.993Z,15.5
2018-06-23T09:29:33.854Z,15.54
2018-06-23T09:30:42.765Z,15.53
2018-06-23T09:31:51.625Z,15.62
2018-06-23T09:33:00.485Z,15.71
2018-06-23T09:34:09.622Z,15.76
2018-06-23T09:35:18.483Z,15.83
2018-06-23T09:36:27.695Z,15.82
2018-06-23T09:37:36.555Z,15.86
2018-06-23T09:38:45.416Z,15.82
2018-06-23T09:39:54.552Z,15.78
2018-06-23T09:41:03.420Z,15.75
2018-06-23T09:42:12.844Z,15.68
2018-06-23T09:43:21.707Z,15.8
2018-06-23T09:44:30.571Z,15.78
2018-06-23T09:45:39.435Z,15.82
2018-06-23T09:46:48.860Z,15.86
2018-06-23T09:47:57.780Z,15.83
2018-06-23T09:49:06.645Z,15.78
2018-06-23T09:50:15.784Z,15.83
2018-06-23T09:51:24.646Z,15.78
2018-06-23T09:52:33.513Z,15.83
2018-06-23T09:53:42.903Z,15.72
2018-06-23T09:54:51.764Z,15.53
2018-06-23T09:56:00.919Z,15.53
2018-06-23T09:57:09.782Z,15.5
2018-06-23T09:58:18.923Z,15.57
2018-06-23T09:59:27.784Z,15.43
2018-06-23T10:00:36.644Z,15.47
2018-06-23T10:01:45.505Z,15.39
2018-06-23T10:02:54.367Z,15.27
2018-06-23T10:04:03.501Z,15.2
2018-06-23T10:05:12.413Z,15.23
2018-06-23T10:06:21.559Z,15.28
2018-06-23T10:07:30.419Z,15.2
2018-06-23T10:08:39.284Z,15.25
2018-06-23T10:09:48.142Z,15.25
2018-06-23T10:10:57.002Z,15.23
2018-06-23T10:12:05.862Z,15.16
2018-06-23T10:13:14.726Z,15.16
2018-06-23T10:14:23.583Z,15.02
2018-06-23T10:15:32.651Z,15.25
2018-06-23T10:16:41.458Z,15.2
2018-06-23T10:17:50.318Z,15.02
2018-06-23T10:18:59.179Z,15.14
2018-06-23T10:20:08.317Z,15.01
2018-06-23T10:21:17.179Z,15.03
2018-06-23T10:22:26.316Z,15.06
2018-06-23T10:23:35.178Z,15.32
2018-06-23T10:24:44.039Z,15.39
2018-06-23T10:25:52.906Z,15.35
2018-06-23T10:27:01.765Z,15.54
2018-06-23T10:28:10.976Z,15.59
2018-06-23T10:29:20.127Z,15.65
2018-06-23T10:30:28.989Z,15.69
2018-06-23T10:31:38.135Z,15.65
2018-06-23T10:32:47.275Z,15.67
2018-06-23T10:33:56.183Z,15.74
2018-06-23T10:35:05.049Z,15.57
2018-06-23T10:36:13.907Z,15.68
2018-06-23T10:37:22.769Z,15.69
2018-06-23T10:38:31.631Z,15.68
2018-06-23T10:39:40.643Z,15.71
2018-06-23T10:40:49.505Z,15.75
2018-06-23T10:41:58.367Z,15.69
2018-06-23T10:43:07.793Z,15.62
2018-06-23T10:44:16.657Z,15.68
2018-06-23T10:45:26.069Z,15.62
2018-06-23T10:46:34.931Z,15.67
2018-06-23T10:47:43.794Z,15.76
2018-06-23T10:48:52.659Z,15.64
2018-06-23T10:50:01.528Z,15.69
2018-06-23T10:51:10.535Z,15.65
2018-06-23T10:52:19.956Z,15.65
2018-06-23T10:53:29.096Z,15.67
2018-06-23T10:54:38.238Z,15.6
2018-06-23T10:55:47.101Z,15.68
2018-06-23T10:56:56.294Z,15.68
2018-06-23T10:58:05.151Z,15.8
2018-06-23T10:59:14.013Z,15.47
2018-06-23T11:00:22.875Z,15.54
2018-06-23T11:01:31.736Z,15.5
2018-06-23T11:02:40.976Z,15.5
2018-06-23T11:03:49.840Z,15.5
2018-06-23T11:04:59.324Z,15.56
2018-06-23T11:06:08.084Z,15.56
2018-06-23T11:07:16.946Z,15.56
2018-06-23T11:08:26.083Z,15.65
2018-06-23T11:09:34.945Z,15.74
2018-06-23T11:10:44.083Z,15.82
2018-06-23T11:11:53.220Z,15.97
2018-06-23T11:13:02.082Z,15.93
2018-06-23T11:14:11.425Z,16
2018-06-23T11:15:20.289Z,16.05
2018-06-23T11:16:29.160Z,16.14
2018-06-23T11:17:38.296Z,16.23
2018-06-23T11:18:47.165Z,16.11
2018-06-23T11:19:56.307Z,16.33
2018-06-23T11:21:05.168Z,16.33
2018-06-23T11:22:14.032Z,16.34
2018-06-23T11:23:23.176Z,16.31
2018-06-23T11:24:32.770Z,16.14
2018-06-23T11:25:42.031Z,16.25
2018-06-23T11:26:50.897Z,16.24
2018-06-23T11:27:59.757Z,16.09
2018-06-23T11:29:08.897Z,16.25
2018-06-23T11:30:17.756Z,16.3
2018-06-23T11:31:26.769Z,16.31
2018-06-23T11:32:35.631Z,16.45
2018-06-23T11:33:44.489Z,16.43
2018-06-23T11:34:53.351Z,16.42
2018-06-23T11:36:02.495Z,16.39
2018-06-23T11:37:11.688Z,16.43
2018-06-23T11:38:20.829Z,16.5
2018-06-23T11:39:29.693Z,16.41
2018-06-23T11:40:38.559Z,16.52
2018-06-23T11:41:47.701Z,16.46
2018-06-23T11:42:57.271Z,16.49
2018-06-23T11:44:06.133Z,16.49
2018-06-23T11:45:14.997Z,16.34
2018-06-23T11:46:23.856Z,16.25
2018-06-23T11:47:32.720Z,16.24
2018-06-23T11:48:42.486Z,16.15
2018-06-23T11:49:51.358Z,16.23
2018-06-23T11:51:00.775Z,16.27
2018-06-23T11:52:09.654Z,16.21
2018-06-23T11:53:18.871Z,16.24
2018-06-23T11:54:27.831Z,16.07
2018-06-23T11:55:36.693Z,16.01
2018-06-23T11:56:45.554Z,15.94
2018-06-23T11:57:54.690Z,16.02
2018-06-23T11:59:03.551Z,16.02
2018-06-23T12:00:13.044Z,15.97
2018-06-23T12:01:21.907Z,15.9
2018-06-23T12:02:31.044Z,15.97
2018-06-23T12:03:40.181Z,15.87
2018-06-23T12:04:49.041Z,15.87
2018-06-23T12:05:58.283Z,15.9
2018-06-23T12:07:07.426Z,15.83
2018-06-23T12:08:16.287Z,15.75
2018-06-23T12:09:25.162Z,15.97
2018-06-23T12:10:34.305Z,15.69
2018-06-23T12:11:43.315Z,15.87
2018-06-23T12:12:52.176Z,15.74
2018-06-23T12:14:01.041Z,15.76
2018-06-23T12:15:10.181Z,15.82
2018-06-23T12:16:19.045Z,15.86
2018-06-23T12:17:28.537Z,15.89
2018-06-23T12:18:37.676Z,15.92
2018-06-23T12:19:46.535Z,15.97
2018-06-23T12:20:55.399Z,16.05
2018-06-23T12:22:04.262Z,16.15
2018-06-23T12:23:13.172Z,16.17
2018-06-23T12:24:22.035Z,16.27
2018-06-23T12:25:30.924Z,16.31
2018-06-23T12:26:40.047Z,16.42
2018-06-23T12:27:48.911Z,16.34
2018-06-23T12:28:57.825Z,16.35
2018-06-23T12:30:06.687Z,16.24
2018-06-23T12:31:15.553Z,16.14
2018-06-23T12:32:24.415Z,16.2
2018-06-23T12:33:33.282Z,16.23
2018-06-23T12:34:42.519Z,16.23
2018-06-23T12:35:51.382Z,16.34
2018-06-23T12:37:00.245Z,16.3
2018-06-23T12:38:09.382Z,16.27
2018-06-23T12:39:18.248Z,16.25
2018-06-23T12:40:27.260Z,16.24
2018-06-23T12:41:36.175Z,16.24
2018-06-23T12:42:45.403Z,16.24
2018-06-23T12:43:54.264Z,16.27
2018-06-23T12:45:03.403Z,16.17
2018-06-23T12:46:12.268Z,16.17
2018-06-23T12:47:21.128Z,16.17
2018-06-23T12:48:30.326Z,16.15
2018-06-23T12:49:39.149Z,16.11
2018-06-23T12:50:48.010Z,16.21
2018-06-23T12:51:57.306Z,16.15
2018-06-23T12:53:06.169Z,16.17
2018-06-23T12:54:15.033Z,16.17
2018-06-23T12:55:24.239Z,16.21
2018-06-23T12:56:33.098Z,16.27
2018-06-23T12:57:42.313Z,16.17
2018-06-23T12:58:51.508Z,16.2
2018-06-23T13:00:00.368Z,16.25
2018-06-23T13:01:09.519Z,16.34
2018-06-23T13:02:18.382Z,16.45
2018-06-23T13:03:27.597Z,16.49
2018-06-23T13:04:36.459Z,16.5
2018-06-23T13:05:45.321Z,16.57
2018-06-23T13:06:54.188Z,16.5
2018-06-23T13:08:03.325Z,16.53
2018-06-23T13:09:12.513Z,16.6
2018-06-23T13:10:21.372Z,16.58
2018-06-23T13:11:30.519Z,16.61
2018-06-23T13:12:39.380Z,16.71
2018-06-23T13:13:48.802Z,16.57
2018-06-23T13:14:57.911Z,16.64
2018-06-23T13:16:07.355Z,16.64
2018-06-23T13:17:16.213Z,16.53
2018-06-23T13:18:25.076Z,16.45
2018-06-23T13:19:34.215Z,16.46
2018-06-23T13:20:43.134Z,16.39
2018-06-23T13:21:51.993Z,16.38
2018-06-23T13:23:00.857Z,16.38
2018-06-23T13:24:09.718Z,16.35
2018-06-23T13:25:19.140Z,16.33
2018-06-23T13:26:28.345Z,16.25
2018-06-23T13:27:37.228Z,16.34
2018-06-23T13:28:46.645Z,16.27
2018-06-23T13:29:55.511Z,16.3
2018-06-23T13:31:04.371Z,16.3
2018-06-23T13:32:13.283Z,16.25
2018-06-23T13:33:22.997Z,16.34
2018-06-23T13:34:32.137Z,16.3
2018-06-23T13:35:40.999Z,16.27
2018-06-23T13:36:50.139Z,16.39
2018-06-23T13:37:59.050Z,16.39
2018-06-23T13:39:07.912Z,16.35
2018-06-23T13:40:16.776Z,16.5
2018-06-23T13:41:25.640Z,16.41
2018-06-23T13:42:34.785Z,16.57
2018-06-23T13:43:43.698Z,16.57
2018-06-23T13:44:52.561Z,16.58
2018-06-23T13:46:01.707Z,16.67
2018-06-23T13:47:10.605Z,16.61
2018-06-23T13:48:19.873Z,16.73
2018-06-23T13:49:29.121Z,16.75
2018-06-23T13:50:37.982Z,16.79
2018-06-23T13:51:47.122Z,16.89
2018-06-23T13:52:55.986Z,16.81
2018-06-23T13:54:04.849Z,16.83
2018-06-23T13:55:13.820Z,16.76
2018-06-23T13:56:22.679Z,16.88
2018-06-23T13:57:31.820Z,16.76
2018-06-23T13:58:40.693Z,16.83
2018-06-23T13:59:49.544Z,16.91
2018-06-23T14:00:58.858Z,16.88
2018-06-23T14:02:07.719Z,16.88
2018-06-23T14:03:17.204Z,16.91
2018-06-23T14:04:26.436Z,16.88
2018-06-23T14:05:35.575Z,17
2018-06-23T14:06:44.437Z,16.93
2018-06-23T14:07:53.302Z,17.01
2018-06-23T14:09:02.455Z,17.15
2018-06-23T14:10:11.603Z,17.07
2018-06-23T14:11:20.741Z,17.08
2018-06-23T14:12:30.033Z,17.14
2018-06-23T14:13:39.221Z,16.96
2018-06-23T14:14:48.109Z,17.03
2018-06-23T14:15:57.315Z,17.08
2018-06-23T14:17:06.178Z,17.14
2018-06-23T14:18:15.195Z,17.12
2018-06-23T14:19:24.346Z,17.18
2018-06-23T14:20:33.489Z,17.36
2018-06-23T14:21:42.710Z,17.44
2018-06-23T14:22:51.526Z,17.4
2018-06-23T14:24:00.489Z,17.33
2018-06-23T14:25:09.355Z,17.34
2018-06-23T14:26:18.224Z,17.18
2018-06-23T14:27:27.090Z,17.22
2018-06-23T14:28:35.954Z,17.18
2018-06-23T14:29:44.915Z,17.15
2018-06-23T14:30:54.065Z,17.19
2018-06-23T14:32:04.656Z,17.06
2018-06-23T14:33:15.584Z,17.11
2018-06-23T14:34:24.444Z,17.18
2018-06-23T14:35:33.361Z,17.16
2018-06-23T14:36:42.224Z,17.16
2018-06-23T14:37:51.089Z,17.08
2018-06-23T14:38:59.955Z,16.94
2018-06-23T14:40:09.129Z,17
2018-06-23T14:41:18.737Z,16.93
2018-06-23T14:42:27.600Z,16.93
2018-06-23T14:43:36.466Z,16.85
2018-06-23T14:44:45.608Z,16.82
2018-06-23T14:45:54.469Z,16.79
2018-06-23T14:47:03.380Z,16.85
2018-06-23T14:48:13.401Z,16.81
2018-06-23T14:49:22.266Z,16.75
2018-06-23T14:50:31.130Z,16.81
2018-06-23T14:51:39.993Z,16.83